createdAt,value
2017-11-25T00:01:58.779Z,94.76
2017-11-25T00:04:26.336Z,94.92
2017-11-25T00:06:53.914Z,95.12
2017-11-25T00:09:21.675Z,94.86
2017-11-25T00:11:49.232Z,95.00
2017-11-25T00:14:16.851Z,95.04
2017-11-25T00:16:44.421Z,95.36
2017-11-25T00:19:12.024Z,95.41
2017-11-25T00:21:39.585Z,95.07
2017-11-25T00:24:07.179Z,94.50
2017-11-25T00:26:34.744Z,93.98
2017-11-25T00:29:02.337Z,94.00
2017-11-25T00:31:29.987Z,94.07
2017-11-25T00:33:57.533Z,93.83
2017-11-25T00:36:25.125Z,94.05
2017-11-25T00:38:52.711Z,94.13
2017-11-25T00:41:20.269Z,93.96
2017-11-25T00:43:47.858Z,93.86
2017-11-25T00:46:15.424Z,94.07
2017-11-25T00:48:43.021Z,94.12
2017-11-25T00:51:15.599Z,94.14
2017-11-25T00:53:43.175Z,94.25
2017-11-25T00:56:10.729Z,94.45
2017-11-25T00:58:38.328Z,94.28
2017-11-25T01:01:05.895Z,94.06
2017-11-25T01:03:33.467Z,94.18
2017-11-25T01:06:01.067Z,94.17
2017-11-25T01:08:28.633Z,94.34
2017-11-25T01:10:56.192Z,94.36
2017-11-25T01:13:23.838Z,94.39
2017-11-25T01:15:51.414Z,94.77
2017-11-25T01:18:18.974Z,94.56
2017-11-25T01:20:46.592Z,94.13
2017-11-25T01:23:14.141Z,94.34
2017-11-25T01:25:41.741Z,94.73
2017-11-25T01:28:09.422Z,94.97
2017-11-25T01:30:37.020Z,95.11
2017-11-25T01:33:04.701Z,95.37
2017-11-25T01:35:32.344Z,95.65
2017-11-25T01:37:59.960Z,95.86
2017-11-25T01:40:27.537Z,95.90
2017-11-25T01:42:55.127Z,96.01
2017-11-25T01:45:23.006Z,96.08
2017-11-25T01:47:50.591Z,96.05
2017-11-25T01:50:18.224Z,96.00
2017-11-25T01:52:45.786Z,96.08
2017-11-25T01:55:13.511Z,96.22
2017-11-25T01:57:41.144Z,96.29
2017-11-25T02:00:08.819Z,96.39
2017-11-25T02:02:36.379Z,96.32
2017-11-25T02:05:04.025Z,96.12
2017-11-25T02:07:31.671Z,96.05
2017-11-25T02:09:59.263Z,95.87
2017-11-25T02:12:26.845Z,95.94
2017-11-25T02:14:54.414Z,96.23
2017-11-25T02:17:22.000Z,96.34
2017-11-25T02:19:49.635Z,96.04
2017-11-25T02:22:17.224Z,96.10
2017-11-25T02:24:44.838Z,96.20
2017-11-25T02:27:12.481Z,95.49
2017-11-25T02:29:40.064Z,94.37
2017-11-25T02:32:07.657Z,94.20
2017-11-25T02:34:35.262Z,94.19
2017-11-25T02:37:02.835Z,94.52
2017-11-25T02:39:30.402Z,94.77
2017-11-25T02:41:58.017Z,95.08
2017-11-25T02:44:25.595Z,95.22
2017-11-25T02:46:53.169Z,95.56
2017-11-25T02:49:20.835Z,95.80
2017-11-25T02:51:48.443Z,95.66
2017-11-25T02:54:16.431Z,95.30
2017-11-25T02:56:44.486Z,94.25
2017-11-25T02:59:12.481Z,93.03
2017-11-25T03:01:40.066Z,92.75
2017-11-25T03:04:07.690Z,93.10
2017-11-25T03:06:35.298Z,93.88
2017-11-25T03:09:02.969Z,94.70
2017-11-25T03:11:30.600Z,94.85
2017-11-25T03:13:58.147Z,94.43
2017-11-25T03:16:25.723Z,94.00
2017-11-25T03:18:53.331Z,93.44
2017-11-25T03:21:20.878Z,93.10
2017-11-25T03:23:48.452Z,93.25
2017-11-25T03:26:16.035Z,93.30
2017-11-25T03:28:43.606Z,93.32
2017-11-25T03:31:11.520Z,93.35
2017-11-25T03:33:39.223Z,93.95
2017-11-25T03:36:06.906Z,94.57
2017-11-25T03:38:35.750Z,94.30
2017-11-25T03:41:03.370Z,94.19
2017-11-25T03:43:31.000Z,94.58
2017-11-25T03:48:49.468Z,94.90
2017-11-25T03:51:17.024Z,95.00
2017-11-25T03:53:44.593Z,95.09
2017-11-25T03:56:12.175Z,95.19
2017-11-25T03:58:39.739Z,95.39
2017-11-25T04:01:07.324Z,95.47
2017-11-25T04:03:34.954Z,95.32
2017-11-25T04:06:02.563Z,95.36
2017-11-25T04:08:30.109Z,95.40
2017-11-25T04:10:57.683Z,95.44
2017-11-25T04:13:25.231Z,95.46
2017-11-25T04:15:52.808Z,95.51
2017-11-25T04:18:20.559Z,95.42
2017-11-25T04:20:48.140Z,94.48
2017-11-25T04:23:15.795Z,93.65
2017-11-25T04:25:43.407Z,93.86
2017-11-25T04:28:11.060Z,94.16
2017-11-25T04:30:38.656Z,94.52
2017-11-25T04:33:06.327Z,94.85
2017-11-25T04:35:34.654Z,95.18
2017-11-25T04:38:02.204Z,95.44
2017-11-25T04:40:29.822Z,95.39
2017-11-25T04:42:57.400Z,95.36
2017-11-25T04:45:24.996Z,95.36
2017-11-25T04:47:52.609Z,95.37
2017-11-25T04:50:20.201Z,95.38
2017-11-25T04:52:47.813Z,95.32
2017-11-25T04:55:15.429Z,94.49
2017-11-25T04:57:43.012Z,93.88
2017-11-25T05:00:10.616Z,93.33
2017-11-25T05:02:38.268Z,93.96
2017-11-25T05:05:06.071Z,94.29
2017-11-25T05:07:33.629Z,93.30
2017-11-25T05:10:01.203Z,93.13
2017-11-25T05:12:28.825Z,93.32
2017-11-25T05:14:56.415Z,93.89
2017-11-25T05:17:23.978Z,94.15
2017-11-25T05:19:51.566Z,94.64
2017-11-25T05:22:20.176Z,95.05
2017-11-25T05:24:47.741Z,95.14
2017-11-25T05:27:15.329Z,95.17
2017-11-25T05:29:42.936Z,94.94
2017-11-25T05:32:10.562Z,95.21
2017-11-25T05:34:38.195Z,95.41
2017-11-25T05:37:05.753Z,95.57
2017-11-25T05:39:33.424Z,95.78
2017-11-25T05:42:01.036Z,95.72
2017-11-25T05:44:28.607Z,95.60
2017-11-25T05:46:56.179Z,95.60
2017-11-25T05:49:23.791Z,95.68
2017-11-25T05:51:51.340Z,95.77
2017-11-25T05:54:18.913Z,95.77
2017-11-25T05:56:46.486Z,95.91
2017-11-25T05:59:14.019Z,95.82
2017-11-25T06:01:41.576Z,95.78
2017-11-25T06:04:09.213Z,95.41
2017-11-25T06:06:36.811Z,95.37
2017-11-25T06:09:04.995Z,94.80
2017-11-25T06:11:32.919Z,94.78
2017-11-25T06:14:00.611Z,94.78
2017-11-25T06:16:28.253Z,94.93
2017-11-25T06:18:55.812Z,94.84
2017-11-25T06:21:23.400Z,94.80
2017-11-25T06:23:50.977Z,94.84
2017-11-25T06:26:18.561Z,94.73
2017-11-25T06:28:46.199Z,94.34
2017-11-25T06:31:16.462Z,93.74
2017-11-25T06:33:44.099Z,94.29
2017-11-25T06:36:11.673Z,94.56
2017-11-25T06:38:39.242Z,94.63
2017-11-25T06:41:06.812Z,94.81
2017-11-25T06:43:34.967Z,94.92
2017-11-25T06:46:02.533Z,94.97
2017-11-25T06:48:30.095Z,94.93
2017-11-25T06:50:57.684Z,95.17
2017-11-25T06:53:25.553Z,95.23
2017-11-25T06:55:53.473Z,94.04
2017-11-25T06:58:21.056Z,93.66
2017-11-25T07:00:48.639Z,93.25
2017-11-25T07:03:16.195Z,93.82
2017-11-25T07:05:43.755Z,94.05
2017-11-25T07:08:11.347Z,94.07
2017-11-25T07:10:38.939Z,94.66
2017-11-25T07:13:06.586Z,94.94
2017-11-25T07:15:34.162Z,94.98
2017-11-25T07:18:03.920Z,94.95
2017-11-25T07:20:31.496Z,93.13
2017-11-25T07:22:59.067Z,93.29
2017-11-25T07:25:26.633Z,91.39
2017-11-25T07:27:54.194Z,92.05
2017-11-25T07:30:21.760Z,91.33
2017-11-25T07:32:49.342Z,91.00
2017-11-25T07:35:16.900Z,90.42
2017-11-25T07:37:44.474Z,90.38
2017-11-25T07:40:12.043Z,90.70
2017-11-25T07:42:39.771Z,91.01
2017-11-25T07:45:07.412Z,90.91
2017-11-25T07:47:34.973Z,90.46
2017-11-25T07:50:02.745Z,90.43
2017-11-25T07:52:30.360Z,90.24
2017-11-25T07:54:59.662Z,89.55
2017-11-25T07:57:27.449Z,90.37
2017-11-25T07:59:55.034Z,88.45
2017-11-25T08:02:22.714Z,88.34
2017-11-25T08:04:50.264Z,88.42
2017-11-25T08:07:17.866Z,88.94
2017-11-25T08:09:45.425Z,90.17
2017-11-25T08:12:12.986Z,91.17
2017-11-25T08:14:40.586Z,90.85
2017-11-25T08:17:08.258Z,90.02
2017-11-25T08:19:36.678Z,90.09
2017-11-25T08:22:04.260Z,90.64
2017-11-25T08:24:31.815Z,88.49
2017-11-25T08:26:59.370Z,87.55
2017-11-25T08:29:26.957Z,86.20
2017-11-25T08:31:54.530Z,85.50
2017-11-25T08:34:22.259Z,85.60
2017-11-25T08:36:49.850Z,84.98
2017-11-25T08:39:17.418Z,84.83
2017-11-25T08:41:45.003Z,84.96
2017-11-25T08:44:12.574Z,84.86
2017-11-25T08:46:40.134Z,85.72
2017-11-25T08:49:07.723Z,87.70
2017-11-25T08:51:35.353Z,87.51
2017-11-25T08:54:03.068Z,84.88
2017-11-25T08:56:30.747Z,81.68
2017-11-25T08:58:58.353Z,80.87
2017-11-25T09:01:25.915Z,79.85
2017-11-25T09:03:53.457Z,80.29
2017-11-25T09:06:21.059Z,80.83
2017-11-25T09:08:48.609Z,81.06
2017-11-25T09:11:16.351Z,82.01
2017-11-25T09:13:43.930Z,83.07
2017-11-25T09:16:11.502Z,83.35
2017-11-25T09:18:39.098Z,84.22
2017-11-25T09:21:06.776Z,82.55
2017-11-25T09:23:34.346Z,83.14
2017-11-25T09:26:01.896Z,81.30
2017-11-25T09:28:29.554Z,81.24
2017-11-25T09:30:57.120Z,80.60
2017-11-25T09:33:24.699Z,80.29
2017-11-25T09:35:52.275Z,81.28
2017-11-25T09:38:19.915Z,79.68
2017-11-25T09:40:47.461Z,80.31
2017-11-25T09:43:15.054Z,80.39
2017-11-25T09:45:42.641Z,80.37
2017-11-25T09:48:10.256Z,80.22
2017-11-25T09:50:37.854Z,81.34
2017-11-25T09:53:05.572Z,81.71
2017-11-25T09:55:33.150Z,82.89
2017-11-25T09:58:00.788Z,80.72
2017-11-25T10:00:28.510Z,81.32
2017-11-25T10:02:56.075Z,82.71
2017-11-25T10:05:23.656Z,84.65
2017-11-25T10:07:51.216Z,80.83
2017-11-25T10:10:18.811Z,81.05
2017-11-25T10:12:46.427Z,81.78
2017-11-25T10:15:14.006Z,82.80
2017-11-25T10:17:41.576Z,83.65
2017-11-25T10:20:09.158Z,83.04
2017-11-25T10:22:36.778Z,83.49
2017-11-25T10:25:04.333Z,83.23
2017-11-25T10:27:31.914Z,79.94
2017-11-25T10:29:59.494Z,78.51
2017-11-25T10:32:27.042Z,80.29
2017-11-25T10:34:54.682Z,81.20
2017-11-25T10:37:23.583Z,81.26
2017-11-25T10:39:51.195Z,79.70
2017-11-25T10:42:18.809Z,80.31
2017-11-25T10:44:46.458Z,80.17
2017-11-25T10:47:14.095Z,75.98
2017-11-25T10:49:41.716Z,74.95
2017-11-25T10:52:09.490Z,73.83
2017-11-25T10:54:37.056Z,72.14
2017-11-25T10:57:04.735Z,74.13
2017-11-25T10:59:33.250Z,76.14
2017-11-25T11:02:00.820Z,75.89
2017-11-25T11:04:28.432Z,74.18
2017-11-25T11:06:55.973Z,73.73
2017-11-25T11:09:23.981Z,73.03
2017-11-25T11:11:51.534Z,74.26
2017-11-25T11:14:19.143Z,73.80
2017-11-25T11:16:46.730Z,76.13
2017-11-25T11:19:14.425Z,75.52
2017-11-25T11:21:42.000Z,74.19
2017-11-25T11:24:09.576Z,74.02
2017-11-25T11:26:37.115Z,72.59
2017-11-25T11:29:04.690Z,72.52
2017-11-25T11:31:32.286Z,71.94
2017-11-25T11:33:59.836Z,73.49
2017-11-25T11:36:27.441Z,73.20
2017-11-25T11:38:55.082Z,73.47
2017-11-25T11:41:22.639Z,74.17
2017-11-25T11:43:50.177Z,73.94
2017-11-25T11:46:17.758Z,72.89
2017-11-25T11:48:45.364Z,73.18
2017-11-25T11:51:13.103Z,74.09
2017-11-25T11:53:40.677Z,74.68
2017-11-25T11:56:08.313Z,74.96
2017-11-25T11:58:35.870Z,75.39
2017-11-25T12:01:03.513Z,75.36
2017-11-25T12:03:31.183Z,75.70
2017-11-25T12:05:58.772Z,75.80
2017-11-25T12:08:26.359Z,76.74
2017-11-25T12:10:53.975Z,76.86
2017-11-25T12:13:21.802Z,76.90
2017-11-25T12:15:49.368Z,75.95
2017-11-25T12:18:16.972Z,76.40
2017-11-25T12:20:44.576Z,76.99
2017-11-25T12:23:12.195Z,78.61
2017-11-25T12:25:39.940Z,78.85
2017-11-25T12:28:07.528Z,78.22
2017-11-25T12:30:35.098Z,77.60
2017-11-25T12:33:02.710Z,76.32
2017-11-25T12:35:30.331Z,76.13
2017-11-25T12:37:57.892Z,76.20
2017-11-25T12:40:25.512Z,76.79
2017-11-25T12:42:53.115Z,76.68
2017-11-25T12:45:20.679Z,77.16
2017-11-25T12:47:48.308Z,77.21
2017-11-25T12:50:15.888Z,77.36
2017-11-25T12:52:43.489Z,77.52
2017-11-25T12:55:11.687Z,77.29
2017-11-25T12:57:39.282Z,76.77
2017-11-25T13:00:07.043Z,78.31
2017-11-25T13:02:34.681Z,79.57
2017-11-25T13:05:02.298Z,79.93
2017-11-25T13:07:29.896Z,78.70
2017-11-25T13:09:57.501Z,77.93
2017-11-25T13:12:25.292Z,77.52
2017-11-25T13:14:52.891Z,77.72
2017-11-25T13:17:20.454Z,77.75
2017-11-25T13:19:48.026Z,78.19
2017-11-25T13:22:15.636Z,78.56
2017-11-25T13:24:43.251Z,78.67
2017-11-25T13:27:11.037Z,79.45
2017-11-25T13:29:38.648Z,80.24
2017-11-25T13:32:06.216Z,80.42
2017-11-25T13:34:33.811Z,79.66
2017-11-25T13:37:01.418Z,80.39
2017-11-25T13:39:29.018Z,80.98
2017-11-25T13:41:56.600Z,81.04
2017-11-25T13:44:24.199Z,81.30
2017-11-25T13:46:51.830Z,79.84
2017-11-25T13:49:19.378Z,78.49
2017-11-25T13:51:46.956Z,77.42
2017-11-25T13:54:14.508Z,77.05
2017-11-25T13:56:42.094Z,77.34
2017-11-25T13:59:09.684Z,78.73
2017-11-25T14:01:37.261Z,79.39
2017-11-25T14:04:04.851Z,80.70
2017-11-25T14:06:32.508Z,81.95
2017-11-25T14:09:00.199Z,83.01
2017-11-25T14:11:27.996Z,83.46
2017-11-25T14:13:55.586Z,84.04
2017-11-25T14:16:23.946Z,83.87
2017-11-25T14:18:51.510Z,84.36
2017-11-25T14:21:19.087Z,84.86
2017-11-25T14:23:46.664Z,84.66
2017-11-25T14:26:14.235Z,84.35
2017-11-25T14:28:41.823Z,84.95
2017-11-25T14:31:09.461Z,85.11
2017-11-25T14:33:37.355Z,85.35
2017-11-25T14:36:05.263Z,85.15
2017-11-25T14:38:32.814Z,85.86
2017-11-25T14:41:00.388Z,86.32
2017-11-25T14:43:28.022Z,86.31
2017-11-25T14:45:55.609Z,86.82
2017-11-25T14:48:23.913Z,87.33
2017-11-25T14:50:51.497Z,87.36
2017-11-25T14:53:19.066Z,87.40
2017-11-25T14:55:46.640Z,87.96
2017-11-25T14:58:14.231Z,87.77
2017-11-25T15:00:41.816Z,87.66
2017-11-25T15:03:09.451Z,87.88
2017-11-25T15:05:37.428Z,88.50
2017-11-25T15:08:04.977Z,88.40
2017-11-25T15:10:32.797Z,88.46
2017-11-25T15:13:00.419Z,88.71
2017-11-25T15:15:27.990Z,88.58
2017-11-25T15:17:55.586Z,88.43
2017-11-25T15:20:23.160Z,88.56
2017-11-25T15:22:50.933Z,88.93
2017-11-25T15:25:19.010Z,89.00
2017-11-25T15:27:46.598Z,89.04
2017-11-25T15:30:14.235Z,89.09
2017-11-25T15:32:41.833Z,89.32
2017-11-25T15:35:09.429Z,88.90
2017-11-25T15:37:37.058Z,89.04
2017-11-25T15:40:04.652Z,88.97
2017-11-25T15:42:32.239Z,88.88
2017-11-25T15:44:59.869Z,88.51
2017-11-25T15:47:27.435Z,88.35
2017-11-25T15:49:55.030Z,87.88
2017-11-25T15:52:22.598Z,87.93
2017-11-25T15:54:50.169Z,87.82
2017-11-25T15:57:17.799Z,87.37
2017-11-25T15:59:45.728Z,86.90
2017-11-25T16:02:13.266Z,86.77
2017-11-25T16:04:40.823Z,86.38
2017-11-25T16:07:08.452Z,86.19
2017-11-25T16:09:36.293Z,86.19
2017-11-25T16:12:03.889Z,85.93
2017-11-25T16:14:31.483Z,85.52
2017-11-25T16:16:59.105Z,85.34
2017-11-25T16:19:26.690Z,85.56
2017-11-25T16:21:54.291Z,85.18
2017-11-25T16:24:22.522Z,85.33
2017-11-25T16:26:50.097Z,85.14
2017-11-25T16:29:17.710Z,85.99
2017-11-25T16:31:45.290Z,85.75
2017-11-25T16:34:12.859Z,85.48
2017-11-25T16:36:40.477Z,85.56
2017-11-25T16:39:08.117Z,85.29
2017-11-25T16:41:35.693Z,85.28
2017-11-25T16:44:03.295Z,85.44
2017-11-25T16:46:30.907Z,85.43
2017-11-25T16:48:58.513Z,85.43
2017-11-25T16:51:26.103Z,85.78
2017-11-25T16:53:53.657Z,85.87
2017-11-25T16:56:21.250Z,85.91
2017-11-25T16:58:48.888Z,85.86
2017-11-25T17:01:16.446Z,85.90
2017-11-25T17:03:44.005Z,86.11
2017-11-25T17:06:11.582Z,86.16
2017-11-25T17:08:39.176Z,86.02
2017-11-25T17:11:07.369Z,85.74
2017-11-25T17:13:36.204Z,85.99
2017-11-25T17:16:03.794Z,85.81
2017-11-25T17:18:31.376Z,85.81
2017-11-25T17:20:58.968Z,86.61
2017-11-25T17:23:26.666Z,86.28
2017-11-25T17:25:54.289Z,86.65
2017-11-25T17:28:21.897Z,86.73
2017-11-25T17:30:49.619Z,86.40
2017-11-25T17:33:17.187Z,86.20
2017-11-25T17:35:44.776Z,86.18
2017-11-25T17:38:12.367Z,86.51
2017-11-25T17:40:39.916Z,85.99
2017-11-25T17:43:07.610Z,86.06
2017-11-25T17:45:35.177Z,85.86
2017-11-25T17:48:02.745Z,86.49
2017-11-25T17:50:30.678Z,86.38
2017-11-25T17:52:58.238Z,86.49
2017-11-25T17:55:25.796Z,86.50
2017-11-25T17:57:53.366Z,86.75
2017-11-25T18:00:20.923Z,86.93
2017-11-25T18:02:48.467Z,86.68
2017-11-25T18:05:16.056Z,86.46
2017-11-25T18:07:43.594Z,85.81
2017-11-25T18:10:11.139Z,85.68
2017-11-25T18:12:38.711Z,85.22
2017-11-25T18:15:06.446Z,85.07
2017-11-25T18:17:34.519Z,85.11
2017-11-25T18:20:02.155Z,85.04
2017-11-25T18:22:29.719Z,85.25
2017-11-25T18:24:57.317Z,85.22
2017-11-25T18:27:25.003Z,85.42
2017-11-25T18:29:52.634Z,85.32
2017-11-25T18:32:20.693Z,85.66
2017-11-25T18:34:48.278Z,86.15
2017-11-25T18:37:15.871Z,86.43
2017-11-25T18:39:43.436Z,86.88
2017-11-25T18:42:11.022Z,87.38
2017-11-25T18:44:38.734Z,87.47
2017-11-25T18:47:06.308Z,87.53
2017-11-25T18:49:33.884Z,87.72
2017-11-25T18:52:01.545Z,87.27
2017-11-25T18:54:29.108Z,87.23
2017-11-25T18:56:56.682Z,87.15
2017-11-25T18:59:24.289Z,87.03
2017-11-25T19:01:51.872Z,86.87
2017-11-25T19:04:19.461Z,86.69
2017-11-25T19:06:47.731Z,86.43
2017-11-25T19:09:15.283Z,86.68
2017-11-25T19:11:42.857Z,86.75
2017-11-25T19:14:10.432Z,86.34
2017-11-25T19:16:38.025Z,87.09
2017-11-25T19:19:07.283Z,87.31
2017-11-25T19:21:35.406Z,87.44
2017-11-25T19:24:02.988Z,87.39
2017-11-25T19:26:30.551Z,87.41
2017-11-25T19:28:58.125Z,86.89
2017-11-25T19:31:25.715Z,86.41
2017-11-25T19:33:53.303Z,86.36
2017-11-25T19:36:20.961Z,86.18
2017-11-25T19:38:48.545Z,85.52
2017-11-25T19:41:16.141Z,84.73
2017-11-25T19:43:43.719Z,84.79
2017-11-25T19:46:11.302Z,84.57
2017-11-25T19:48:38.878Z,84.52
2017-11-25T19:51:06.507Z,84.10
2017-11-25T19:53:34.109Z,84.16
2017-11-25T19:56:01.666Z,84.42
2017-11-25T19:58:29.218Z,84.41
2017-11-25T20:00:56.796Z,84.71
2017-11-25T20:03:24.343Z,84.86
2017-11-25T20:05:51.904Z,85.00
2017-11-25T20:08:19.489Z,84.71
2017-11-25T20:10:47.116Z,84.50
2017-11-25T20:13:14.788Z,84.75
2017-11-25T20:15:42.408Z,84.83
2017-11-25T20:18:10.084Z,85.00
2017-11-25T20:20:37.649Z,84.86
2017-11-25T20:23:05.440Z,84.49
2017-11-25T20:25:33.026Z,84.82
2017-11-25T20:28:00.602Z,84.64
2017-11-25T20:30:28.193Z,84.19
2017-11-25T20:32:55.754Z,84.11
2017-11-25T20:35:23.334Z,83.73
2017-11-25T20:37:50.915Z,82.92
2017-11-25T20:40:18.503Z,83.10
2017-11-25T20:42:46.055Z,82.87
2017-11-25T20:45:13.707Z,83.40
2017-11-25T20:47:41.352Z,82.48
2017-11-25T20:50:08.922Z,82.51
2017-11-25T20:52:36.493Z,81.99
2017-11-25T20:55:04.081Z,81.65
2017-11-25T20:57:31.680Z,82.14
2017-11-25T20:59:59.276Z,81.95
2017-11-25T21:02:26.822Z,82.01
2017-11-25T21:04:54.395Z,81.97
2017-11-25T21:07:21.969Z,81.78
2017-11-25T21:09:49.542Z,81.94
2017-11-25T21:12:17.198Z,81.90
2017-11-25T21:14:44.765Z,81.62
2017-11-25T21:17:12.479Z,81.69
2017-11-25T21:19:40.103Z,80.96
2017-11-25T21:22:07.663Z,81.21
2017-11-25T21:24:35.217Z,81.40
2017-11-25T21:27:02.872Z,81.39
2017-11-25T21:29:30.658Z,80.97
2017-11-25T21:31:58.215Z,80.76
2017-11-25T21:34:25.836Z,80.36
2017-11-25T21:36:55.348Z,80.28
2017-11-25T21:39:22.900Z,80.36
2017-11-25T21:41:50.495Z,80.58
2017-11-25T21:44:18.076Z,79.80
2017-11-25T21:46:45.676Z,80.27
2017-11-25T21:49:13.290Z,80.46
2017-11-25T21:51:40.854Z,80.04
2017-11-25T21:54:08.397Z,80.06
2017-11-25T21:56:36.037Z,79.96
2017-11-25T21:59:03.599Z,79.75
2017-11-25T22:01:31.160Z,78.55
2017-11-25T22:03:58.746Z,78.75
2017-11-25T22:06:26.341Z,79.12
2017-11-25T22:08:53.945Z,78.97
2017-11-25T22:11:21.633Z,78.96
2017-11-25T22:13:49.209Z,79.13
2017-11-25T22:16:16.773Z,79.65
2017-11-25T22:18:44.330Z,79.34
2017-11-25T22:21:12.025Z,79.75
2017-11-25T22:23:39.664Z,79.84
2017-11-25T22:26:07.234Z,80.06
2017-11-25T22:28:34.806Z,80.60
2017-11-25T22:31:02.368Z,80.68
2017-11-25T22:33:29.947Z,80.43
2017-11-25T22:35:57.540Z,79.38
2017-11-25T22:38:25.113Z,79.96
2017-11-25T22:40:52.722Z,79.84
2017-11-25T22:43:20.287Z,79.92
2017-11-25T22:45:47.862Z,79.70
2017-11-25T22:48:15.485Z,79.15
2017-11-25T22:50:43.068Z,79.10
2017-11-25T22:53:10.626Z,79.55
2017-11-25T22:55:39.005Z,79.03
2017-11-25T22:58:06.562Z,79.07
2017-11-25T23:00:34.154Z,79.23
2017-11-25T23:03:01.730Z,79.14
2017-11-25T23:05:29.328Z,79.10
2017-11-25T23:07:56.873Z,78.77
2017-11-25T23:10:24.482Z,78.75
2017-11-25T23:12:52.070Z,78.72
2017-11-25T23:15:19.617Z,78.43
2017-11-25T23:17:47.184Z,79.18
2017-11-25T23:20:14.795Z,78.77
2017-11-25T23:22:42.360Z,79.28
2017-11-25T23:25:10.086Z,78.76
2017-11-25T23:27:40.998Z,79.18
2017-11-25T23:30:08.545Z,79.25
2017-11-25T23:32:36.115Z,79.28
2017-11-25T23:35:03.709Z,78.95
2017-11-25T23:37:31.300Z,79.03
2017-11-25T23:39:58.865Z,79.32
2017-11-25T23:42:26.448Z,79.23
2017-11-25T23:44:54.001Z,79.11
2017-11-25T23:47:21.616Z,78.70
2017-11-25T23:49:49.221Z,78.75
2017-11-25T23:52:16.762Z,78.83
2017-11-25T23:54:45.354Z,78.93
2017-11-25T23:57:12.999Z,79.00
2017-11-25T23:59:40.577Z,79.73
